Time;durP1;ratioP1;P1;durP2;ratioP2;P2;SDS_P1;SDS_P2;PMS_P1;PMS_P2;Temp;Humidity;BMP_temperature;BMP_pressure;BME280_temperature;BME280_humidity;BME280_pressure;Samples;Min_cycle;Max_cycle;Signal;HPM_P1;HPM_P2
2023/07/26 00:01:47;;;;;;;6.78;2.95;;;;;;;;;;5016298;28;20034;-75
2023/07/26 00:04:12;;;;;;;7.72;3.05;;;;;;;;;;5013358;28;20033;-75
2023/07/26 00:06:37;;;;;;;7.50;2.85;;;;;;;;;;5016454;28;20423;-75
2023/07/26 00:09:03;;;;;;;7.50;2.50;;;;;;;;;;5015280;28;20056;-76
2023/07/26 00:11:29;;;;;;;6.10;2.80;;;;;;;;;;5014789;28;20026;-75
2023/07/26 00:13:54;;;;;;;8.45;3.20;;;;;;;;;;5016236;28;20029;-75
2023/07/26 00:16:19;;;;;;;5.72;2.83;;;;;;;;;;5016022;28;20056;-72
2023/07/26 00:18:45;;;;;;;5.67;2.97;;;;;;;;;;5013900;28;20033;-75
2023/07/26 00:21:10;;;;;;;6.03;2.97;;;;;;;;;;5015346;28;20266;-75
2023/07/26 00:23:35;;;;;;;9.35;3.17;;;;;;;;;;5014851;28;20026;-75
2023/07/26 00:26:02;;;;;;;8.07;3.20;;;;;;;;;;5016140;28;20032;-75
2023/07/26 00:28:27;;;;;;;6.38;2.85;;;;;;;;;;5015727;28;20456;-74
2023/07/26 00:30:52;;;;;;;7.03;2.80;;;;;;;;;;5014514;28;20034;-75
2023/07/26 00:33:18;;;;;;;4.03;2.70;;;;;;;;;;5015627;28;20271;-74
2023/07/26 00:35:43;;;;;;;5.22;2.60;;;;;;;;;;5014263;28;20820;-75
2023/07/26 00:38:09;;;;;;;6.22;2.80;;;;;;;;;;5014148;28;20112;-75
2023/07/26 00:40:38;;;;;;;9.52;3.20;;;;;;;;;;5015573;28;20022;-75
2023/07/26 00:43:05;;;;;;;5.32;2.92;;;;;;;;;;5015453;28;20025;-75
2023/07/26 00:45:33;;;;;;;6.18;3.28;;;;;;;;;;5015359;28;20489;-75
2023/07/26 00:47:59;;;;;;;10.15;2.97;;;;;;;;;;5015849;28;20387;-74
2023/07/26 00:50:25;;;;;;;8.30;3.50;;;;;;;;;;5013876;28;20041;-75
2023/07/26 00:52:51;;;;;;;9.70;3.33;;;;;;;;;;5015409;28;20125;-75
2023/07/26 00:55:16;;;;;;;7.80;3.13;;;;;;;;;;5015345;28;20034;-74
2023/07/26 00:57:46;;;;;;;7.22;3.30;;;;;;;;;;5013776;28;20157;-75
2023/07/26 01:00:12;;;;;;;7.20;2.90;;;;;;;;;;5015353;28;20029;-75
2023/07/26 01:02:38;;;;;;;10.93;2.90;;;;;;;;;;5015165;28;20400;-73
2023/07/26 01:05:05;;;;;;;4.93;3.08;;;;;;;;;;5013215;28;20022;-73
2023/07/26 01:07:49;;;;;;;10.35;3.30;;;;;;;;;;5013381;28;20112;-74
2023/07/26 01:10:19;;;;;;;5.32;2.85;;;;;;;;;;5013470;28;20021;-75
2023/07/26 01:12:54;;;;;;;6.63;2.80;;;;;;;;;;5013840;28;20022;-74
2023/07/26 01:15:26;;;;;;;7.97;2.80;;;;;;;;;;5015198;28;20024;-73
2023/07/26 01:18:16;;;;;;;8.55;2.85;;;;;;;;;;5014924;28;20072;-74
2023/07/26 01:20:41;;;;;;;11.75;2.85;;;;;;;;;;5015007;28;20026;-75
2023/07/26 01:23:07;;;;;;;7.13;2.97;;;;;;;;;;5014796;28;20076;-75
2023/07/26 01:25:33;;;;;;;8.77;3.03;;;;;;;;;;5014661;28;20393;-74
2023/07/26 01:27:59;;;;;;;11.10;2.63;;;;;;;;;;5014939;28;20026;-72
2023/07/26 01:30:29;;;;;;;8.05;2.67;;;;;;;;;;5014558;28;20539;-74
2023/07/26 01:32:58;;;;;;;7.50;2.90;;;;;;;;;;5013285;28;20498;-71
2023/07/26 01:35:24;;;;;;;4.82;2.30;;;;;;;;;;5014498;28;20034;-75
2023/07/26 01:37:52;;;;;;;6.70;2.60;;;;;;;;;;5014430;28;20041;-72
2023/07/26 01:40:18;;;;;;;4.32;2.47;;;;;;;;;;5014180;28;20033;-75
2023/07/26 01:42:43;;;;;;;4.78;2.30;;;;;;;;;;5013931;28;20030;-75
2023/07/26 01:45:09;;;;;;;7.45;2.60;;;;;;;;;;5014462;28;20041;-75
2023/07/26 01:47:35;;;;;;;5.45;2.22;;;;;;;;;;5013000;28;20103;-75
2023/07/26 01:50:00;;;;;;;7.30;2.10;;;;;;;;;;5013953;28;20148;-73
2023/07/26 01:52:26;;;;;;;7.28;2.35;;;;;;;;;;5014432;28;20484;-74
2023/07/26 01:54:51;;;;;;;2.90;1.83;;;;;;;;;;5014167;28;20022;-73
2023/07/26 01:57:16;;;;;;;6.32;2.03;;;;;;;;;;5014237;28;20026;-75
2023/07/26 01:59:42;;;;;;;9.70;2.50;;;;;;;;;;4996416;28;20068;-75
2023/07/26 02:02:07;;;;;;;5.55;2.22;;;;;;;;;;5012667;28;20274;-72
2023/07/26 02:04:32;;;;;;;8.25;2.13;;;;;;;;;;5013829;28;20037;-74
2023/07/26 02:06:57;;;;;;;7.17;2.47;;;;;;;;;;5012295;28;20132;-75
2023/07/26 02:09:23;;;;;;;9.38;2.20;;;;;;;;;;5013814;28;20252;-75
2023/07/26 02:11:49;;;;;;;7.93;2.33;;;;;;;;;;5012856;28;20030;-75
2023/07/26 02:14:15;;;;;;;6.55;2.40;;;;;;;;;;5014037;28;20075;-75
2023/07/26 02:16:41;;;;;;;4.30;2.35;;;;;;;;;;5013772;28;20030;-75
2023/07/26 02:19:06;;;;;;;12.75;2.42;;;;;;;;;;5011558;28;20029;-74
2023/07/26 02:21:31;;;;;;;6.87;2.53;;;;;;;;;;5012505;28;20552;-75
2023/07/26 02:23:56;;;;;;;7.60;2.30;;;;;;;;;;5013666;28;20624;-75
2023/07/26 02:26:22;;;;;;;10.55;2.42;;;;;;;;;;5013363;28;20049;-75
2023/07/26 02:28:47;;;;;;;7.88;2.22;;;;;;;;;;5013154;28;20018;-75
2023/07/26 02:31:12;;;;;;;11.00;2.25;;;;;;;;;;5012313;28;20463;-75
2023/07/26 02:33:37;;;;;;;6.10;2.03;;;;;;;;;;5013812;28;20026;-75
2023/07/26 02:36:03;;;;;;;10.30;2.57;;;;;;;;;;5013542;28;20026;-75
2023/07/26 02:38:28;;;;;;;8.93;2.20;;;;;;;;;;5013346;28;20284;-75
2023/07/26 02:40:53;;;;;;;9.30;2.23;;;;;;;;;;5012456;28;20033;-74
2023/07/26 02:43:18;;;;;;;7.72;2.17;;;;;;;;;;5012429;28;20630;-75
2023/07/26 02:45:44;;;;;;;10.40;2.40;;;;;;;;;;5012631;28;20073;-75
2023/07/26 02:48:09;;;;;;;7.97;2.00;;;;;;;;;;5013322;28;20350;-74
2023/07/26 02:50:34;;;;;;;6.50;2.03;;;;;;;;;;5011733;28;20738;-75
2023/07/26 02:52:59;;;;;;;12.70;2.33;;;;;;;;;;5011649;28;20635;-76
2023/07/26 02:55:25;;;;;;;5.18;2.15;;;;;;;;;;5013732;28;20076;-75
2023/07/26 02:57:50;;;;;;;9.65;2.50;;;;;;;;;;5013918;28;20030;-75
2023/07/26 03:00:16;;;;;;;9.57;2.25;;;;;;;;;;5013187;28;20021;-75
2023/07/26 03:02:41;;;;;;;10.18;2.08;;;;;;;;;;5013290;28;20076;-75
2023/07/26 03:05:08;;;;;;;6.18;2.10;;;;;;;;;;5012838;28;20459;-74
2023/07/26 03:07:33;;;;;;;7.82;2.20;;;;;;;;;;5013098;28;20104;-75
2023/07/26 03:09:58;;;;;;;6.63;2.13;;;;;;;;;;5013144;28;20094;-74
2023/07/26 03:12:23;;;;;;;6.55;2.05;;;;;;;;;;5013185;28;20026;-74
2023/07/26 03:14:49;;;;;;;4.53;2.30;;;;;;;;;;5013205;28;20068;-74
2023/07/26 03:17:14;;;;;;;9.38;2.40;;;;;;;;;;5013133;28;20511;-74
2023/07/26 03:19:39;;;;;;;6.13;2.50;;;;;;;;;;5013022;28;20042;-76
2023/07/26 03:22:04;;;;;;;8.13;2.10;;;;;;;;;;5013117;28;20263;-76
2023/07/26 03:24:30;;;;;;;3.78;2.05;;;;;;;;;;5012993;28;20524;-76
2023/07/26 03:26:55;;;;;;;8.20;2.92;;;;;;;;;;5011818;28;20032;-76
2023/07/26 03:29:20;;;;;;;9.33;2.67;;;;;;;;;;5014027;28;20026;-78
2023/07/26 03:31:45;;;;;;;8.25;2.20;;;;;;;;;;5016886;28;20285;-75
2023/07/26 03:34:11;;;;;;;14.82;2.80;;;;;;;;;;5017328;28;20026;-75
2023/07/26 03:36:36;;;;;;;8.63;2.22;;;;;;;;;;5016481;28;20442;-75
2023/07/26 03:39:01;;;;;;;10.20;2.50;;;;;;;;;;5015259;28;20088;-75
2023/07/26 03:41:27;;;;;;;8.83;2.10;;;;;;;;;;5016651;28;20026;-75
2023/07/26 03:43:52;;;;;;;7.95;2.10;;;;;;;;;;5016799;28;20289;-76
2023/07/26 03:46:17;;;;;;;12.38;2.60;;;;;;;;;;5015365;28;20025;-75
2023/07/26 03:48:42;;;;;;;7.05;2.33;;;;;;;;;;5014826;28;20400;-75
2023/07/26 03:51:08;;;;;;;4.18;2.20;;;;;;;;;;5016822;28;20065;-75
2023/07/26 03:53:33;;;;;;;7.38;2.58;;;;;;;;;;5016751;28;20053;-75
2023/07/26 03:55:58;;;;;;;9.55;2.33;;;;;;;;;;5016341;28;20030;-76
2023/07/26 03:58:23;;;;;;;8.60;2.28;;;;;;;;;;5014921;28;20481;-76
2023/07/26 04:00:50;;;;;;;11.80;2.17;;;;;;;;;;5016370;28;20026;-75
2023/07/26 04:03:15;;;;;;;9.10;2.40;;;;;;;;;;5015135;28;20030;-75
2023/07/26 04:05:41;;;;;;;5.68;2.30;;;;;;;;;;5014991;28;20026;-75
2023/07/26 04:08:07;;;;;;;9.35;2.17;;;;;;;;;;5016140;28;20103;-76
2023/07/26 04:10:32;;;;;;;6.30;2.10;;;;;;;;;;5016163;28;20105;-75
2023/07/26 04:12:58;;;;;;;10.50;2.70;;;;;;;;;;5016075;28;20129;-76
2023/07/26 04:15:23;;;;;;;7.85;2.20;;;;;;;;;;5014658;28;20033;-75
2023/07/26 04:17:48;;;;;;;13.23;2.10;;;;;;;;;;5015847;28;20022;-75
2023/07/26 04:20:14;;;;;;;5.32;1.77;;;;;;;;;;5015834;28;20075;-76
2023/07/26 04:22:39;;;;;;;7.68;2.10;;;;;;;;;;5015825;28;20477;-76
2023/07/26 04:25:05;;;;;;;9.07;1.90;;;;;;;;;;5016136;28;20034;-76
2023/07/26 04:27:30;;;;;;;10.60;2.20;;;;;;;;;;5016039;28;20021;-75
2023/07/26 04:29:55;;;;;;;11.25;2.10;;;;;;;;;;5015806;28;20030;-75
2023/07/26 04:32:20;;;;;;;10.63;2.10;;;;;;;;;;5015636;28;20507;-75
2023/07/26 04:34:46;;;;;;;8.30;2.03;;;;;;;;;;5015642;28;20333;-75
2023/07/26 04:37:11;;;;;;;7.27;1.57;;;;;;;;;;5015615;28;20496;-75
2023/07/26 04:39:36;;;;;;;2.87;1.70;;;;;;;;;;5015616;28;20328;-77
2023/07/26 04:42:02;;;;;;;6.60;1.90;;;;;;;;;;5014998;28;20314;-76
2023/07/26 04:44:27;;;;;;;16.10;2.60;;;;;;;;;;5015496;28;20029;-76
2023/07/26 04:46:52;;;;;;;9.68;1.63;;;;;;;;;;5015545;28;20068;-75
2023/07/26 04:49:17;;;;;;;9.37;1.83;;;;;;;;;;5015176;28;20025;-75
2023/07/26 04:51:43;;;;;;;3.67;1.63;;;;;;;;;;5016039;28;20267;-75
2023/07/26 04:54:08;;;;;;;9.10;1.70;;;;;;;;;;5015260;28;20313;-75
2023/07/26 04:56:33;;;;;;;9.57;1.70;;;;;;;;;;5015249;28;20305;-76
2023/07/26 04:58:58;;;;;;;7.07;1.98;;;;;;;;;;5013832;28;20018;-75
2023/07/26 05:01:24;;;;;;;4.07;1.60;;;;;;;;;;5015096;28;20026;-75
2023/07/26 05:03:49;;;;;;;10.77;1.80;;;;;;;;;;5015104;28;20030;-75
2023/07/26 05:06:14;;;;;;;8.95;1.77;;;;;;;;;;5014551;28;20030;-75
2023/07/26 05:08:40;;;;;;;5.63;1.50;;;;;;;;;;5013610;28;20068;-75
2023/07/26 05:11:05;;;;;;;10.47;1.77;;;;;;;;;;5015011;28;20029;-75
2023/07/26 05:13:31;;;;;;;4.95;1.70;;;;;;;;;;5014860;28;20338;-75
2023/07/26 05:15:56;;;;;;;11.27;1.85;;;;;;;;;;5014715;28;20515;-75
2023/07/26 05:18:21;;;;;;;3.15;1.33;;;;;;;;;;5014709;28;20025;-75
2023/07/26 05:20:52;;;;;;;8.85;1.90;;;;;;;;;;5013260;28;20022;-75
2023/07/26 05:23:18;;;;;;;9.70;1.60;;;;;;;;;;5015082;28;20030;-75
2023/07/26 05:25:43;;;;;;;6.43;1.67;;;;;;;;;;5014960;28;20061;-77
2023/07/26 05:28:09;;;;;;;6.15;1.50;;;;;;;;;;5014648;28;20144;-74
2023/07/26 05:30:38;;;;;;;6.28;1.63;;;;;;;;;;5014625;28;20033;-75
2023/07/26 05:33:04;;;;;;;8.68;1.70;;;;;;;;;;5014754;28;20057;-75
2023/07/26 05:35:29;;;;;;;8.82;1.63;;;;;;;;;;5013135;28;20052;-75
2023/07/26 05:37:55;;;;;;;6.83;1.33;;;;;;;;;;5014275;28;20541;-75
2023/07/26 05:40:20;;;;;;;5.23;1.60;;;;;;;;;;5014354;28;20255;-75
2023/07/26 05:42:45;;;;;;;4.17;1.37;;;;;;;;;;5014188;28;20337;-76
2023/07/26 05:45:10;;;;;;;5.30;1.42;;;;;;;;;;5014721;28;20248;-76
2023/07/26 05:47:38;;;;;;;7.93;1.50;;;;;;;;;;5014835;28;20064;-76
2023/07/26 05:50:05;;;;;;;3.83;1.60;;;;;;;;;;5014023;28;20081;-76
2023/07/26 05:52:31;;;;;;;13.18;1.38;;;;;;;;;;5014189;28;20026;-76
2023/07/26 05:54:56;;;;;;;10.13;1.40;;;;;;;;;;5014438;28;20535;-75
2023/07/26 05:57:21;;;;;;;6.63;1.60;;;;;;;;;;5014117;28;20033;-75
2023/07/26 05:59:46;;;;;;;7.07;1.30;;;;;;;;;;5014097;28;20258;-76
2023/07/26 06:02:12;;;;;;;4.65;1.30;;;;;;;;;;5014050;28;20563;-76
2023/07/26 06:04:37;;;;;;;6.97;1.30;;;;;;;;;;5013966;28;20030;-76
2023/07/26 06:07:02;;;;;;;6.88;1.40;;;;;;;;;;5014007;28;20122;-76
2023/07/26 06:09:28;;;;;;;8.25;1.40;;;;;;;;;;5014001;28;20018;-76
2023/07/26 06:11:53;;;;;;;9.13;1.30;;;;;;;;;;5013879;28;20040;-76
2023/07/26 06:14:18;;;;;;;7.37;1.60;;;;;;;;;;5012622;28;20615;-76
2023/07/26 06:16:43;;;;;;;6.30;1.50;;;;;;;;;;5013797;28;20269;-75
2023/07/26 06:19:09;;;;;;;6.25;1.45;;;;;;;;;;5013656;28;20409;-75
2023/07/26 06:21:34;;;;;;;6.05;1.33;;;;;;;;;;5013963;28;20040;-76
2023/07/26 06:23:59;;;;;;;9.55;1.85;;;;;;;;;;5013717;28;20084;-76
2023/07/26 06:26:24;;;;;;;6.87;1.70;;;;;;;;;;5013875;28;20028;-75
2023/07/26 06:28:50;;;;;;;7.13;1.40;;;;;;;;;;5012239;28;20259;-75
2023/07/26 06:31:16;;;;;;;6.83;1.60;;;;;;;;;;5013583;28;20612;-76
2023/07/26 06:33:41;;;;;;;5.72;1.25;;;;;;;;;;5013572;28;20273;-76
2023/07/26 06:36:07;;;;;;;8.57;1.50;;;;;;;;;;5013917;28;20117;-76
2023/07/26 06:38:32;;;;;;;6.45;1.55;;;;;;;;;;5012098;28;20026;-76
2023/07/26 06:40:57;;;;;;;9.25;1.08;;;;;;;;;;5014623;28;20451;-77
2023/07/26 06:43:23;;;;;;;5.35;1.55;;;;;;;;;;5013996;28;20037;-76
2023/07/26 06:45:50;;;;;;;11.43;1.40;;;;;;;;;;5013868;28;20026;-76
2023/07/26 06:48:16;;;;;;;9.30;1.50;;;;;;;;;;5013377;28;20321;-77
2023/07/26 06:50:41;;;;;;;6.13;1.33;;;;;;;;;;5014222;28;20495;-77
2023/07/26 06:53:07;;;;;;;7.28;1.60;;;;;;;;;;5013652;28;20026;-76
2023/07/26 06:55:33;;;;;;;9.00;1.67;;;;;;;;;;5014909;28;20029;-77
2023/07/26 06:57:58;;;;;;;2.63;1.13;;;;;;;;;;5013457;28;20037;-76
2023/07/26 07:00:24;;;;;;;8.65;1.40;;;;;;;;;;5013071;28;20022;-77
2023/07/26 07:03:01;;;;;;;5.10;1.33;;;;;;;;;;5013523;28;20076;-77
2023/07/26 07:05:27;;;;;;;6.32;1.67;;;;;;;;;;5019326;28;20030;-77
2023/07/26 07:07:53;;;;;;;3.50;1.10;;;;;;;;;;5019973;28;20072;-77
2023/07/26 07:10:18;;;;;;;8.60;1.50;;;;;;;;;;5018490;28;20057;-77
2023/07/26 07:12:44;;;;;;;7.35;1.27;;;;;;;;;;5020078;28;20030;-76
2023/07/26 07:15:09;;;;;;;7.95;1.50;;;;;;;;;;5020601;28;20026;-76
2023/07/26 07:17:35;;;;;;;6.70;1.90;;;;;;;;;;5020135;28;20022;-75
2023/07/26 07:20:00;;;;;;;13.35;1.33;;;;;;;;;;5020102;28;20485;-76
2023/07/26 07:22:25;;;;;;;5.07;1.55;;;;;;;;;;5019863;28;20485;-76
2023/07/26 07:24:53;;;;;;;7.35;1.38;;;;;;;;;;5019858;28;20030;-76
2023/07/26 07:27:18;;;;;;;5.05;1.25;;;;;;;;;;5019447;28;20048;-75
2023/07/26 07:29:43;;;;;;;9.50;1.55;;;;;;;;;;5018141;28;20489;-75
2023/07/26 07:32:09;;;;;;;7.57;1.63;;;;;;;;;;5019658;28;20101;-78
2023/07/26 07:34:34;;;;;;;5.00;1.30;;;;;;;;;;5019401;28;20278;-76
2023/07/26 07:36:59;;;;;;;2.05;0.80;;;;;;;;;;5019747;28;20029;-76
2023/07/26 07:39:25;;;;;;;3.58;0.80;;;;;;;;;;5019352;28;20101;-76
2023/07/26 07:41:51;;;;;;;6.63;1.27;;;;;;;;;;5018377;28;20026;-75
2023/07/26 07:44:16;;;;;;;4.60;1.27;;;;;;;;;;5018169;28;20022;-76
2023/07/26 07:46:44;;;;;;;9.70;1.15;;;;;;;;;;5019319;28;20026;-77
2023/07/26 07:49:09;;;;;;;7.88;1.30;;;;;;;;;;5019194;28;20014;-76
2023/07/26 07:51:34;;;;;;;3.88;1.25;;;;;;;;;;5019376;28;20036;-76
2023/07/26 07:54:00;;;;;;;2.30;1.00;;;;;;;;;;5019807;28;20029;-76
2023/07/26 07:56:25;;;;;;;9.47;1.40;;;;;;;;;;5019226;28;20290;-77
2023/07/26 07:58:50;;;;;;;2.57;1.00;;;;;;;;;;5019099;28;20279;-76
2023/07/26 08:01:15;;;;;;;6.17;1.20;;;;;;;;;;5018259;28;20264;-77
2023/07/26 08:03:40;;;;;;;2.57;1.10;;;;;;;;;;5019111;28;20267;-77
2023/07/26 08:06:06;;;;;;;2.97;1.10;;;;;;;;;;5019154;28;20802;-77
2023/07/26 08:08:31;;;;;;;3.50;1.27;;;;;;;;;;5018036;28;20361;-77
2023/07/26 08:10:56;;;;;;;2.70;1.13;;;;;;;;;;5019160;28;20032;-77
2023/07/26 08:13:21;;;;;;;1.90;1.13;;;;;;;;;;5016908;28;20116;-77
2023/07/26 08:15:47;;;;;;;5.27;1.00;;;;;;;;;;5016589;28;20349;-77
2023/07/26 08:18:12;;;;;;;3.97;1.38;;;;;;;;;;5016987;28;20759;-75
2023/07/26 08:20:37;;;;;;;8.45;1.40;;;;;;;;;;5016473;28;20022;-75
2023/07/26 08:23:06;;;;;;;8.82;1.42;;;;;;;;;;5016354;28;20033;-75
2023/07/26 08:25:31;;;;;;;5.38;1.20;;;;;;;;;;5015865;28;20432;-75
2023/07/26 08:27:56;;;;;;;3.08;1.00;;;;;;;;;;5016340;28;20026;-75
2023/07/26 08:30:22;;;;;;;3.97;1.30;;;;;;;;;;5015649;28;20105;-74
2023/07/26 08:32:47;;;;;;;3.28;1.20;;;;;;;;;;5013843;28;20493;-74
2023/07/26 08:35:12;;;;;;;5.03;1.30;;;;;;;;;;5015787;28;20088;-74
2023/07/26 08:37:38;;;;;;;2.85;1.30;;;;;;;;;;5015596;28;20541;-75
2023/07/26 08:40:04;;;;;;;4.20;1.42;;;;;;;;;;5015537;28;20033;-75
2023/07/26 08:42:29;;;;;;;4.18;1.20;;;;;;;;;;5015504;28;20511;-75
2023/07/26 08:44:54;;;;;;;2.10;0.82;;;;;;;;;;5015814;28;20097;-74
2023/07/26 08:47:22;;;;;;;2.63;1.00;;;;;;;;;;5014224;28;20022;-75
2023/07/26 08:49:48;;;;;;;3.03;1.27;;;;;;;;;;5015227;28;20037;-75
2023/07/26 08:52:14;;;;;;;4.22;0.98;;;;;;;;;;5015408;28;20085;-74
2023/07/26 08:54:40;;;;;;;1.92;1.10;;;;;;;;;;5015362;28;20033;-75
2023/07/26 08:57:05;;;;;;;4.55;1.35;;;;;;;;;;5015072;28;20025;-76
2023/07/26 08:59:32;;;;;;;8.20;1.30;;;;;;;;;;5013796;28;20029;-75
2023/07/26 09:01:58;;;;;;;4.20;1.10;;;;;;;;;;5015569;28;20025;-75
2023/07/26 09:04:24;;;;;;;4.50;1.00;;;;;;;;;;5015482;28;20104;-75
2023/07/26 09:06:50;;;;;;;2.97;1.38;;;;;;;;;;5015427;28;20452;-75
2023/07/26 09:09:16;;;;;;;5.25;1.30;;;;;;;;;;5015067;28;20032;-75
2023/07/26 09:11:50;;;;;;;5.65;1.38;;;;;;;;;;5015342;28;20021;-76
2023/07/26 09:14:15;;;;;;;3.42;1.50;;;;;;;;;;5013781;28;20028;-77
2023/07/26 09:16:40;;;;;;;2.45;1.05;;;;;;;;;;5013575;28;20463;-76
2023/07/26 09:19:06;;;;;;;3.17;1.10;;;;;;;;;;5014743;28;20025;-76
2023/07/26 09:21:33;;;;;;;1.95;1.08;;;;;;;;;;5014881;28;20034;-76
2023/07/26 09:23:59;;;;;;;2.70;1.15;;;;;;;;;;5014784;28;20108;-76
2023/07/26 09:26:41;;;;;;;4.43;1.20;;;;;;;;;;5014611;28;20088;-75
2023/07/26 09:29:10;;;;;;;5.68;1.40;;;;;;;;;;5014824;28;20028;-76
2023/07/26 09:31:38;;;;;;;6.18;1.08;;;;;;;;;;5014854;28;20101;-76
2023/07/26 09:34:06;;;;;;;1.67;0.80;;;;;;;;;;5013357;28;20037;-76
2023/07/26 09:36:46;;;;;;;3.38;1.20;;;;;;;;;;5014767;28;20022;-75
2023/07/26 09:39:13;;;;;;;3.17;1.10;;;;;;;;;;5014336;28;20569;-75
2023/07/26 09:41:39;;;;;;;2.17;1.10;;;;;;;;;;5013157;28;20481;-75
2023/07/26 09:44:05;;;;;;;2.55;0.90;;;;;;;;;;5013934;28;20109;-75
2023/07/26 09:46:47;;;;;;;3.63;1.30;;;;;;;;;;5014236;28;20041;-75
2023/07/26 09:49:12;;;;;;;2.78;1.20;;;;;;;;;;5014233;28;20018;-75
2023/07/26 09:51:39;;;;;;;3.85;1.00;;;;;;;;;;5012808;28;20029;-76
2023/07/26 09:54:05;;;;;;;3.10;1.20;;;;;;;;;;5015547;28;20026;-77
2023/07/26 09:56:33;;;;;;;1.55;0.90;;;;;;;;;;5014348;28;20374;-76
2023/07/26 09:59:00;;;;;;;2.25;1.15;;;;;;;;;;5014078;28;20033;-76
2023/07/26 10:01:27;;;;;;;6.00;1.00;;;;;;;;;;5014410;28;20030;-77
2023/07/26 10:03:55;;;;;;;3.03;1.20;;;;;;;;;;5012632;28;20424;-77
2023/07/26 10:06:22;;;;;;;5.18;1.20;;;;;;;;;;5013959;28;20030;-76
2023/07/26 10:08:48;;;;;;;1.90;1.00;;;;;;;;;;5013957;28;20056;-77
2023/07/26 10:11:21;;;;;;;2.50;1.00;;;;;;;;;;5013972;28;20111;-76
2023/07/26 10:13:48;;;;;;;2.17;1.00;;;;;;;;;;5014046;28;20389;-76
2023/07/26 10:16:13;;;;;;;2.00;0.95;;;;;;;;;;5013994;28;20058;-76
2023/07/26 10:18:41;;;;;;;2.67;1.40;;;;;;;;;;5013951;28;20571;-77
2023/07/26 10:21:08;;;;;;;2.33;1.30;;;;;;;;;;5013982;28;20033;-76
2023/07/26 10:23:34;;;;;;;4.90;1.40;;;;;;;;;;5013937;28;20065;-76
2023/07/26 10:26:05;;;;;;;2.75;1.20;;;;;;;;;;5013554;28;20070;-76
2023/07/26 10:28:33;;;;;;;4.25;1.48;;;;;;;;;;5012319;28;20021;-76
2023/07/26 10:31:00;;;;;;;2.55;1.58;;;;;;;;;;5013661;28;20049;-76
2023/07/26 10:33:27;;;;;;;2.58;1.70;;;;;;;;;;5013784;28;20033;-76
2023/07/26 10:35:53;;;;;;;8.73;1.58;;;;;;;;;;5014010;28;20385;-77
2023/07/26 10:38:19;;;;;;;6.18;1.80;;;;;;;;;;5013071;28;20022;-77
2023/07/26 10:40:45;;;;;;;3.63;1.35;;;;;;;;;;5013328;28;20055;-77
2023/07/26 10:43:19;;;;;;;3.63;1.55;;;;;;;;;;5013422;28;20022;-76
2023/07/26 10:45:46;;;;;;;4.13;1.20;;;;;;;;;;5013629;28;20038;-77
2023/07/26 10:48:32;;;;;;;2.25;1.52;;;;;;;;;;5013593;28;20025;-77
2023/07/26 10:50:58;;;;;;;2.33;1.30;;;;;;;;;;5006188;28;20049;-77
2023/07/26 10:53:36;;;;;;;2.38;1.23;;;;;;;;;;5012300;28;20037;-77
2023/07/26 10:56:23;;;;;;;2.92;1.42;;;;;;;;;;5012279;28;20029;-77
2023/07/26 10:58:58;;;;;;;3.28;1.60;;;;;;;;;;5013557;28;20053;-76
2023/07/26 11:01:31;;;;;;;4.93;1.48;;;;;;;;;;5013275;28;20106;-77
2023/07/26 11:03:59;;;;;;;2.55;1.15;;;;;;;;;;5012020;28;20037;-76
2023/07/26 11:06:49;;;;;;;5.00;1.00;;;;;;;;;;5015840;28;20037;-76
2023/07/26 11:09:25;;;;;;;2.08;1.02;;;;;;;;;;5011860;28;20037;-75
2023/07/26 11:11:59;;;;;;;4.10;1.15;;;;;;;;;;5011961;28;20034;-76
2023/07/26 11:14:30;;;;;;;4.13;1.10;;;;;;;;;;5013678;28;20104;-75
2023/07/26 11:16:58;;;;;;;2.47;0.90;;;;;;;;;;5013431;28;20052;-75
2023/07/26 11:19:23;;;;;;;5.10;1.10;;;;;;;;;;5013117;28;20052;-75
2023/07/26 11:21:48;;;;;;;1.60;1.00;;;;;;;;;;5011598;28;20026;-76
2023/07/26 11:24:14;;;;;;;1.90;1.00;;;;;;;;;;5012956;28;20029;-75
2023/07/26 11:26:46;;;;;;;1.98;1.20;;;;;;;;;;5013050;28;20267;-75
2023/07/26 11:29:12;;;;;;;2.85;1.10;;;;;;;;;;5012410;28;20097;-76
2023/07/26 11:31:38;;;;;;;4.00;1.00;;;;;;;;;;5010148;28;20033;-75
2023/07/26 11:34:17;;;;;;;5.22;1.10;;;;;;;;;;5011936;28;20054;-76
2023/07/26 11:36:43;;;;;;;1.63;0.80;;;;;;;;;;5012532;28;20037;-76
2023/07/26 11:39:19;;;;;;;2.63;1.10;;;;;;;;;;5012640;28;20033;-76
2023/07/26 11:41:44;;;;;;;9.02;0.90;;;;;;;;;;5012821;28;20111;-76
2023/07/26 11:44:10;;;;;;;1.35;0.90;;;;;;;;;;5012813;28;20057;-76
2023/07/26 11:46:35;;;;;;;1.98;1.10;;;;;;;;;;5013042;28;20076;-75
2023/07/26 11:49:01;;;;;;;1.10;0.98;;;;;;;;;;5012628;28;20026;-75
2023/07/26 11:51:31;;;;;;;1.13;0.85;;;;;;;;;;5015962;28;20104;-76
2023/07/26 11:53:56;;;;;;;2.78;1.00;;;;;;;;;;5016480;28;20026;-76
2023/07/26 11:56:28;;;;;;;2.15;0.95;;;;;;;;;;5016472;28;20474;-75
2023/07/26 11:58:54;;;;;;;0.73;0.73;;;;;;;;;;5015113;28;20030;-75
2023/07/26 12:01:20;;;;;;;1.60;1.00;;;;;;;;;;5014708;28;20504;-76
2023/07/26 12:03:45;;;;;;;1.67;1.10;;;;;;;;;;5016259;28;20092;-75
2023/07/26 12:06:11;;;;;;;4.17;1.20;;;;;;;;;;5014979;28;20485;-76
2023/07/26 12:08:37;;;;;;;3.42;1.08;;;;;;;;;;5016092;28;20366;-76
2023/07/26 12:11:05;;;;;;;3.53;1.00;;;;;;;;;;5016474;28;20084;-76
2023/07/26 12:13:32;;;;;;;2.60;1.08;;;;;;;;;;5016361;28;20025;-75
2023/07/26 12:16:00;;;;;;;3.20;0.90;;;;;;;;;;5015941;28;20116;-76
2023/07/26 12:18:26;;;;;;;2.40;0.93;;;;;;;;;;5015848;28;20025;-75
2023/07/26 12:21:02;;;;;;;4.22;1.00;;;;;;;;;;5014740;28;20112;-76
2023/07/26 12:23:28;;;;;;;2.30;1.10;;;;;;;;;;5016293;28;20022;-76
2023/07/26 12:25:56;;;;;;;1.00;0.80;;;;;;;;;;5015954;28;20504;-75
2023/07/26 12:28:24;;;;;;;2.80;1.10;;;;;;;;;;5016012;28;20076;-75
2023/07/26 12:30:54;;;;;;;1.90;1.00;;;;;;;;;;5014029;28;20527;-75
2023/07/26 12:33:20;;;;;;;1.35;0.90;;;;;;;;;;5014476;28;20021;-76
2023/07/26 12:35:46;;;;;;;1.88;1.23;;;;;;;;;;5015730;28;20397;-75
2023/07/26 12:38:12;;;;;;;1.73;0.90;;;;;;;;;;5015562;28;20080;-75
2023/07/26 12:40:38;;;;;;;4.47;1.10;;;;;;;;;;5015605;28;20053;-75
2023/07/26 12:43:25;;;;;;;1.85;1.20;;;;;;;;;;5014273;28;20119;-75
2023/07/26 12:45:51;;;;;;;2.42;1.00;;;;;;;;;;5015500;28;20113;-75
2023/07/26 12:48:16;;;;;;;2.58;1.10;;;;;;;;;;5015375;28;20547;-75
2023/07/26 12:50:42;;;;;;;2.72;1.10;;;;;;;;;;5015292;28;20065;-75
2023/07/26 12:53:08;;;;;;;2.30;1.00;;;;;;;;;;5015672;28;20026;-74
2023/07/26 12:55:34;;;;;;;2.08;1.00;;;;;;;;;;5015247;28;20080;-75
2023/07/26 12:57:59;;;;;;;5.93;1.10;;;;;;;;;;5013945;28;20022;-75
2023/07/26 13:00:25;;;;;;;1.17;0.98;;;;;;;;;;5015133;28;20096;-75
2023/07/26 13:02:50;;;;;;;1.75;0.90;;;;;;;;;;5013225;28;20061;-74
2023/07/26 13:05:18;;;;;;;3.13;0.90;;;;;;;;;;5015048;28;20432;-75
2023/07/26 13:07:43;;;;;;;1.15;0.95;;;;;;;;;;5015309;28;20038;-75
2023/07/26 13:10:08;;;;;;;0.83;0.70;;;;;;;;;;5015144;28;20021;-76
2023/07/26 13:12:34;;;;;;;2.85;0.93;;;;;;;;;;5014947;28;20346;-75
2023/07/26 13:14:59;;;;;;;2.53;1.10;;;;;;;;;;5013628;28;20497;-75
2023/07/26 13:17:24;;;;;;;4.43;1.03;;;;;;;;;;5014763;28;20263;-75
2023/07/26 13:19:54;;;;;;;1.77;1.00;;;;;;;;;;5014770;28;20260;-76
2023/07/26 13:22:19;;;;;;;2.78;1.00;;;;;;;;;;5014779;28;20333;-76
2023/07/26 13:24:44;;;;;;;4.07;1.00;;;;;;;;;;5014947;28;20497;-75
2023/07/26 13:27:09;;;;;;;1.70;1.10;;;;;;;;;;5014607;28;20022;-75
2023/07/26 13:29:35;;;;;;;3.33;1.00;;;;;;;;;;5014882;28;20263;-76
2023/07/26 13:32:00;;;;;;;4.03;1.00;;;;;;;;;;5014654;28;20712;-75
2023/07/26 13:34:25;;;;;;;4.93;1.43;;;;;;;;;;5014594;28;20567;-75
2023/07/26 13:36:54;;;;;;;1.87;1.00;;;;;;;;;;5014607;28;20267;-76
2023/07/26 13:39:19;;;;;;;6.05;1.40;;;;;;;;;;5014498;28;20291;-76
2023/07/26 13:41:45;;;;;;;1.83;1.37;;;;;;;;;;5014513;28;20026;-76
2023/07/26 13:44:10;;;;;;;3.27;1.20;;;;;;;;;;5014803;28;20343;-75
2023/07/26 13:46:35;;;;;;;4.82;1.30;;;;;;;;;;5014366;28;20263;-76
2023/07/26 13:49:01;;;;;;;2.67;1.17;;;;;;;;;;5012890;28;20017;-75
2023/07/26 13:51:26;;;;;;;2.45;1.40;;;;;;;;;;5014174;28;20279;-76
2023/07/26 13:53:52;;;;;;;2.88;1.58;;;;;;;;;;5014191;28;20025;-76
2023/07/26 13:56:17;;;;;;;1.38;1.08;;;;;;;;;;5014252;28;20029;-75
2023/07/26 13:58:42;;;;;;;3.30;1.43;;;;;;;;;;5013433;28;20022;-75
2023/07/26 14:01:08;;;;;;;6.60;1.90;;;;;;;;;;5013174;28;20314;-75
2023/07/26 14:03:33;;;;;;;4.55;1.33;;;;;;;;;;5013276;28;20263;-75
2023/07/26 14:05:58;;;;;;;4.37;1.20;;;;;;;;;;5014139;28;20421;-75
2023/07/26 14:08:23;;;;;;;2.10;1.10;;;;;;;;;;5013920;28;20251;-75
2023/07/26 14:10:49;;;;;;;2.83;1.10;;;;;;;;;;5012618;28;20032;-75
2023/07/26 14:13:15;;;;;;;2.70;1.38;;;;;;;;;;5013092;28;20539;-75
2023/07/26 14:15:40;;;;;;;2.72;1.10;;;;;;;;;;5013473;28;20026;-76
2023/07/26 14:18:06;;;;;;;2.05;1.20;;;;;;;;;;5012474;28;20503;-77
2023/07/26 14:20:32;;;;;;;2.30;1.40;;;;;;;;;;5012400;28;20029;-77
2023/07/26 14:22:58;;;;;;;3.38;1.15;;;;;;;;;;5014003;28;20346;-76
2023/07/26 14:25:23;;;;;;;2.73;1.10;;;;;;;;;;5013762;28;20239;-76
2023/07/26 14:27:48;;;;;;;3.50;1.13;;;;;;;;;;5013839;28;20260;-75
2023/07/26 14:30:13;;;;;;;2.87;1.00;;;;;;;;;;5013588;28;20129;-75
2023/07/26 14:32:39;;;;;;;3.13;1.10;;;;;;;;;;5012340;28;20288;-75
2023/07/26 14:35:04;;;;;;;1.88;0.98;;;;;;;;;;5012310;28;20279;-75
2023/07/26 14:37:29;;;;;;;1.90;0.93;;;;;;;;;;5013461;28;20021;-76
2023/07/26 14:39:54;;;;;;;1.43;0.90;;;;;;;;;;5013434;28;20485;-76